LTBULBBG

Guest
Details From LTBU - CORLU
To LBBG - Burgas
Flight Number -
Tags generated
Created
Modified
Stats Distance 88 nm / 163 km
Max Altitude 0 ft / 0 m
Waypoints 3
Social Downloads 0
Likes 0
Share VATSIM

Download

Looking for another format? Having issues loading an existing format? Contact us
Advertisement - Login to hide

Notes

Basic altitude profile: - Ascent Rate: 2500ft/min - Ascent Speed: 250kts - Cruise Altitude: 35000ft - Cruise Speed: 420kts - Descent Rate: 1500ft/min - Descent Speed: 250kts Options: - Use NATs: yes - Use PACOTS: yes - Use low airways: yes - Use high airways: yes

Route

LTBU BGS LBBG

ID Type Via Altitude Latitude Longitude Leg Dist Tot Dist Heading (true) Name
O LTBU APT - 0 ft / 0 m 41.13825˚ 27.91894˚ - 0 nm - CORLU
BGS VOR - 0 ft / 0 m 42.57106˚ 27.51986˚ 87 nm 87 nm 348° / 348° BURGAS VOR-DME
O LBBG APT - 0 ft / 0 m 42.57013˚ 27.51524˚ 0 nm 88 nm 255° / 255° Burgas

Altitude Profile

Advertisement - Login to hide

LTBU

Details ICAO LTBU (TEQ)
Name CORLU
Region Turkey
Timezone Europe/Istanbul (UTC+3.0)
Stats Elevation 574 ft / 175 m (AMSL)
Location 41.138250° 27.918944°
Runways 1
Magnetic Variation 5.345° E

METAR

LTBU 110250Z 17005KT CAVOK 04/00 Q1020

Decode

TAF

Not found

Departure Runways

ID Width Length Bearing (true) Bearing (mag) Surface Threshold Offset Overrun Length
05 148 ft / 45 m 9,899 ft / 3,017 m 49.36° 44.02° Concrete 0 ft / 0 m 458 ft / 140 m
23 148 ft / 45 m 9,899 ft / 3,017 m 229.37° 224.03° Concrete 0 ft / 0 m 495 ft / 151 m

LBBG

Details ICAO LBBG (BOJ)
Name Burgas
Region Bulgaria
Timezone Europe/Sofia (UTC+2.0)
Stats Elevation 135 ft / 41 m (AMSL)
Location 42.570130° 27.515240°
Runways 1
Magnetic Variation 5.502° E

METAR

LBBG 110300Z 27006KT CAVOK M01/M05 Q1019 NOSIG

Decode

TAF

TAF LBBG 102300Z 1100/1124 VRB04KT CAVOK TEMPO 1102/1106 3000 BR BECMG 1110/1112 24012KT TEMPO 1112/1115 24012G24KT

Decode

Destination Runways

ID Width Length Bearing (true) Bearing (mag) Surface Threshold Offset Overrun Length
04 148 ft / 45 m 10,502 ft / 3,201 m 44.28° 38.78° Concrete 0 ft / 0 m 190 ft / 58 m
22 148 ft / 45 m 10,502 ft / 3,201 m 224.29° 218.79° Concrete 0 ft / 0 m 190 ft / 58 m

Approach Navaids

Runway Type Ident Frequency Range Bearing (true) Bearing (mag) Slope Elevation
22 Localiser IBG 110.30 MHz 18 nm / 33 km 224.26° 218.76° - 135 ft / 41 m (AMSL)
22 Glidescope IBG 110.30 MHz 10 nm / 19 km 224.28° 218.78° 3.00° 135 ft / 41 m (AMSL)

Popular Alternatives